sensor_id;sensor_type;location;lat;lon;timestamp;P1;durP1;ratioP1;P2;durP2;ratioP2
12359;SDS011;6244;51.460;7.090;2022-08-05T00:01:01;1132.10;;;901.45;;
12359;SDS011;6244;51.460;7.090;2022-08-05T00:05:58;1132.00;;;903.50;;
12359;SDS011;6244;51.460;7.090;2022-08-05T00:10:55;1133.72;;;906.83;;
12359;SDS011;6244;51.460;7.090;2022-08-05T00:15:54;1131.70;;;899.27;;
12359;SDS011;6244;51.460;7.090;2022-08-05T00:20:51;1132.20;;;906.30;;
12359;SDS011;6244;51.460;7.090;2022-08-05T00:25:48;1130.67;;;906.43;;
12359;SDS011;6244;51.460;7.090;2022-08-05T00:30:46;1132.63;;;908.20;;
12359;SDS011;6244;51.460;7.090;2022-08-05T00:35:43;1130.63;;;900.60;;
12359;SDS011;6244;51.460;7.090;2022-08-05T00:40:44;1133.85;;;912.42;;
12359;SDS011;6244;51.460;7.090;2022-08-05T00:45:42;1131.55;;;905.55;;
12359;SDS011;6244;51.460;7.090;2022-08-05T00:50:41;1132.03;;;910.97;;
12359;SDS011;6244;51.460;7.090;2022-08-05T00:55:40;1130.00;;;906.53;;
12359;SDS011;6244;51.460;7.090;2022-08-05T01:00:37;1128.53;;;900.83;;
12359;SDS011;6244;51.460;7.090;2022-08-05T01:05:34;1130.38;;;907.25;;
12359;SDS011;6244;51.460;7.090;2022-08-05T01:10:34;1133.43;;;900.80;;
12359;SDS011;6244;51.460;7.090;2022-08-05T01:15:37;1130.75;;;900.25;;
12359;SDS011;6244;51.460;7.090;2022-08-05T01:20:45;1137.00;;;904.27;;
12359;SDS011;6244;51.460;7.090;2022-08-05T01:26:04;1137.83;;;896.03;;
12359;SDS011;6244;51.460;7.090;2022-08-05T01:31:16;1139.25;;;880.90;;
12359;SDS011;6244;51.460;7.090;2022-08-05T01:36:18;1138.78;;;875.47;;
12359;SDS011;6244;51.460;7.090;2022-08-05T01:41:19;1141.43;;;876.55;;
12359;SDS011;6244;51.460;7.090;2022-08-05T01:46:19;1136.68;;;871.85;;
12359;SDS011;6244;51.460;7.090;2022-08-05T01:51:17;1138.07;;;874.73;;
12359;SDS011;6244;51.460;7.090;2022-08-05T01:56:14;1136.87;;;871.80;;
12359;SDS011;6244;51.460;7.090;2022-08-05T02:01:12;1134.80;;;869.58;;
12359;SDS011;6244;51.460;7.090;2022-08-05T02:06:12;1139.27;;;882.90;;
12359;SDS011;6244;51.460;7.090;2022-08-05T02:11:10;1135.13;;;874.80;;
12359;SDS011;6244;51.460;7.090;2022-08-05T02:16:13;1134.47;;;874.17;;
12359;SDS011;6244;51.460;7.090;2022-08-05T02:21:16;1133.18;;;869.47;;
12359;SDS011;6244;51.460;7.090;2022-08-05T02:26:21;1136.27;;;879.10;;
12359;SDS011;6244;51.460;7.090;2022-08-05T02:31:20;1134.25;;;873.83;;
12359;SDS011;6244;51.460;7.090;2022-08-05T02:36:21;1134.67;;;863.33;;
12359;SDS011;6244;51.460;7.090;2022-08-05T02:41:18;1139.88;;;871.25;;
12359;SDS011;6244;51.460;7.090;2022-08-05T02:46:16;1138.55;;;864.08;;
12359;SDS011;6244;51.460;7.090;2022-08-05T02:51:14;1140.23;;;866.73;;
12359;SDS011;6244;51.460;7.090;2022-08-05T02:56:13;1143.25;;;864.47;;
12359;SDS011;6244;51.460;7.090;2022-08-05T03:01:12;1145.47;;;864.58;;
12359;SDS011;6244;51.460;7.090;2022-08-05T03:06:12;1148.18;;;871.22;;
12359;SDS011;6244;51.460;7.090;2022-08-05T03:16:28;1144.33;;;870.53;;
12359;SDS011;6244;51.460;7.090;2022-08-05T03:21:25;1144.40;;;866.10;;
12359;SDS011;6244;51.460;7.090;2022-08-05T03:26:22;1148.10;;;872.92;;
12359;SDS011;6244;51.460;7.090;2022-08-05T03:31:20;1152.77;;;873.07;;
12359;SDS011;6244;51.460;7.090;2022-08-05T03:36:16;1151.95;;;862.55;;
12359;SDS011;6244;51.460;7.090;2022-08-05T03:41:14;1151.95;;;864.65;;
12359;SDS011;6244;51.460;7.090;2022-08-05T03:46:10;1152.20;;;864.03;;
12359;SDS011;6244;51.460;7.090;2022-08-05T03:51:10;1148.97;;;855.45;;
12359;SDS011;6244;51.460;7.090;2022-08-05T03:56:10;1148.47;;;858.28;;
12359;SDS011;6244;51.460;7.090;2022-08-05T04:01:12;1147.30;;;863.65;;
12359;SDS011;6244;51.460;7.090;2022-08-05T04:06:13;1144.40;;;867.17;;
12359;SDS011;6244;51.460;7.090;2022-08-05T04:11:12;1143.30;;;859.75;;
12359;SDS011;6244;51.460;7.090;2022-08-05T04:16:10;1139.90;;;858.08;;
12359;SDS011;6244;51.460;7.090;2022-08-05T04:21:08;1147.13;;;871.93;;
12359;SDS011;6244;51.460;7.090;2022-08-05T04:26:06;1143.45;;;867.78;;
12359;SDS011;6244;51.460;7.090;2022-08-05T04:31:02;1144.70;;;864.80;;
12359;SDS011;6244;51.460;7.090;2022-08-05T04:35:59;1140.50;;;862.55;;
12359;SDS011;6244;51.460;7.090;2022-08-05T04:40:55;1141.85;;;863.10;;
12359;SDS011;6244;51.460;7.090;2022-08-05T04:45:53;1141.05;;;879.88;;
12359;SDS011;6244;51.460;7.090;2022-08-05T04:50:50;1138.57;;;869.50;;
12359;SDS011;6244;51.460;7.090;2022-08-05T04:55:46;1141.43;;;883.90;;
12359;SDS011;6244;51.460;7.090;2022-08-05T05:00:43;1140.07;;;878.28;;
12359;SDS011;6244;51.460;7.090;2022-08-05T05:05:41;1138.55;;;865.55;;
12359;SDS011;6244;51.460;7.090;2022-08-05T05:10:38;1137.47;;;859.65;;
12359;SDS011;6244;51.460;7.090;2022-08-05T05:15:37;1135.78;;;854.70;;
12359;SDS011;6244;51.460;7.090;2022-08-05T05:20:34;1135.03;;;855.05;;
12359;SDS011;6244;51.460;7.090;2022-08-05T05:25:32;1138.90;;;877.42;;
12359;SDS011;6244;51.460;7.090;2022-08-05T05:30:29;1137.95;;;871.47;;
12359;SDS011;6244;51.460;7.090;2022-08-05T05:35:25;1141.47;;;882.60;;
12359;SDS011;6244;51.460;7.090;2022-08-05T05:40:22;1141.95;;;871.97;;
12359;SDS011;6244;51.460;7.090;2022-08-05T05:45:21;1144.22;;;878.60;;
12359;SDS011;6244;51.460;7.090;2022-08-05T05:50:18;1142.28;;;874.08;;
12359;SDS011;6244;51.460;7.090;2022-08-05T05:55:15;1143.28;;;881.92;;
12359;SDS011;6244;51.460;7.090;2022-08-05T06:00:14;1142.93;;;887.00;;
12359;SDS011;6244;51.460;7.090;2022-08-05T06:05:13;1140.97;;;882.30;;
12359;SDS011;6244;51.460;7.090;2022-08-05T06:10:11;1139.07;;;879.78;;
12359;SDS011;6244;51.460;7.090;2022-08-05T06:15:09;1138.85;;;879.95;;
12359;SDS011;6244;51.460;7.090;2022-08-05T06:20:06;1137.38;;;872.55;;
12359;SDS011;6244;51.460;7.090;2022-08-05T06:25:05;1139.45;;;868.42;;
12359;SDS011;6244;51.460;7.090;2022-08-05T06:30:03;1147.23;;;887.47;;
12359;SDS011;6244;51.460;7.090;2022-08-05T06:35:00;1148.15;;;887.20;;
12359;SDS011;6244;51.460;7.090;2022-08-05T06:39:57;1144.55;;;884.45;;
12359;SDS011;6244;51.460;7.090;2022-08-05T06:44:55;1142.72;;;879.53;;
12359;SDS011;6244;51.460;7.090;2022-08-05T06:49:51;1139.68;;;880.72;;
12359;SDS011;6244;51.460;7.090;2022-08-05T06:54:48;1142.78;;;890.33;;
12359;SDS011;6244;51.460;7.090;2022-08-05T06:59:44;1147.18;;;883.55;;
12359;SDS011;6244;51.460;7.090;2022-08-05T07:04:42;1144.95;;;878.95;;
12359;SDS011;6244;51.460;7.090;2022-08-05T07:09:39;1144.30;;;881.58;;
12359;SDS011;6244;51.460;7.090;2022-08-05T07:14:35;1146.37;;;879.83;;
12359;SDS011;6244;51.460;7.090;2022-08-05T07:19:51;1141.80;;;869.90;;
12359;SDS011;6244;51.460;7.090;2022-08-05T07:24:50;1150.73;;;872.30;;
12359;SDS011;6244;51.460;7.090;2022-08-05T07:29:47;1146.82;;;870.95;;
12359;SDS011;6244;51.460;7.090;2022-08-05T07:34:43;1143.93;;;871.60;;
12359;SDS011;6244;51.460;7.090;2022-08-05T07:39:41;1143.28;;;867.72;;
12359;SDS011;6244;51.460;7.090;2022-08-05T07:44:38;1137.60;;;861.40;;
12359;SDS011;6244;51.460;7.090;2022-08-05T07:49:34;1141.00;;;874.50;;
12359;SDS011;6244;51.460;7.090;2022-08-05T07:54:31;1136.57;;;861.13;;
12359;SDS011;6244;51.460;7.090;2022-08-05T07:59:29;1138.57;;;874.97;;
12359;SDS011;6244;51.460;7.090;2022-08-05T08:04:25;1142.55;;;870.58;;
12359;SDS011;6244;51.460;7.090;2022-08-05T08:09:22;1138.47;;;864.43;;
12359;SDS011;6244;51.460;7.090;2022-08-05T08:14:18;1139.07;;;871.65;;
12359;SDS011;6244;51.460;7.090;2022-08-05T08:19:17;1140.55;;;870.88;;
12359;SDS011;6244;51.460;7.090;2022-08-05T08:24:13;1137.00;;;871.13;;
12359;SDS011;6244;51.460;7.090;2022-08-05T08:29:10;1134.70;;;856.63;;
12359;SDS011;6244;51.460;7.090;2022-08-05T08:34:06;1132.90;;;882.75;;
12359;SDS011;6244;51.460;7.090;2022-08-05T08:39:04;1131.57;;;868.95;;
12359;SDS011;6244;51.460;7.090;2022-08-05T08:44:01;1132.20;;;877.08;;
12359;SDS011;6244;51.460;7.090;2022-08-05T08:48:58;1131.13;;;877.38;;
12359;SDS011;6244;51.460;7.090;2022-08-05T08:53:57;1131.07;;;883.03;;
12359;SDS011;6244;51.460;7.090;2022-08-05T08:58:55;1129.85;;;873.00;;
12359;SDS011;6244;51.460;7.090;2022-08-05T09:03:53;1131.60;;;882.72;;
12359;SDS011;6244;51.460;7.090;2022-08-05T09:08:50;1130.95;;;878.13;;
12359;SDS011;6244;51.460;7.090;2022-08-05T09:13:47;1131.32;;;882.70;;
12359;SDS011;6244;51.460;7.090;2022-08-05T09:18:45;1134.18;;;873.83;;
12359;SDS011;6244;51.460;7.090;2022-08-05T09:23:44;1132.23;;;886.23;;
12359;SDS011;6244;51.460;7.090;2022-08-05T09:28:41;1129.55;;;880.92;;
12359;SDS011;6244;51.460;7.090;2022-08-05T09:33:49;1130.87;;;877.33;;
12359;SDS011;6244;51.460;7.090;2022-08-05T09:38:56;1128.75;;;882.95;;
12359;SDS011;6244;51.460;7.090;2022-08-05T09:43:53;1129.40;;;885.33;;
12359;SDS011;6244;51.460;7.090;2022-08-05T09:48:51;1128.43;;;888.78;;
12359;SDS011;6244;51.460;7.090;2022-08-05T09:53:49;1125.47;;;884.70;;
12359;SDS011;6244;51.460;7.090;2022-08-05T09:58:54;1128.00;;;885.13;;
12359;SDS011;6244;51.460;7.090;2022-08-05T10:03:57;1128.70;;;892.75;;
12359;SDS011;6244;51.460;7.090;2022-08-05T10:08:54;1128.47;;;892.17;;
12359;SDS011;6244;51.460;7.090;2022-08-05T10:13:51;1133.60;;;875.13;;
12359;SDS011;6244;51.460;7.090;2022-08-05T10:18:48;1128.63;;;888.35;;
12359;SDS011;6244;51.460;7.090;2022-08-05T10:23:46;1129.25;;;891.05;;
12359;SDS011;6244;51.460;7.090;2022-08-05T10:28:44;1129.38;;;894.08;;
12359;SDS011;6244;51.460;7.090;2022-08-05T10:33:41;1130.53;;;900.55;;
12359;SDS011;6244;51.460;7.090;2022-08-05T10:38:38;1132.38;;;909.15;;
12359;SDS011;6244;51.460;7.090;2022-08-05T10:43:45;1138.13;;;919.30;;
12359;SDS011;6244;51.460;7.090;2022-08-05T10:48:46;1138.40;;;921.67;;
12359;SDS011;6244;51.460;7.090;2022-08-05T10:53:44;1137.20;;;936.38;;
12359;SDS011;6244;51.460;7.090;2022-08-05T11:04:03;1143.53;;;963.92;;
12359;SDS011;6244;51.460;7.090;2022-08-05T11:09:12;1130.75;;;998.90;;
12359;SDS011;6244;51.460;7.090;2022-08-05T11:14:21;1127.80;;;999.90;;
12359;SDS011;6244;51.460;7.090;2022-08-05T11:19:23;1136.10;;;999.90;;
12359;SDS011;6244;51.460;7.090;2022-08-05T11:24:24;1132.15;;;999.90;;
12359;SDS011;6244;51.460;7.090;2022-08-05T11:29:34;1133.57;;;999.90;;
12359;SDS011;6244;51.460;7.090;2022-08-05T11:34:34;1128.53;;;999.90;;
12359;SDS011;6244;51.460;7.090;2022-08-05T11:39:48;1142.85;;;999.90;;
12359;SDS011;6244;51.460;7.090;2022-08-05T11:44:47;1146.63;;;999.90;;
12359;SDS011;6244;51.460;7.090;2022-08-05T11:49:45;1142.10;;;999.90;;
12359;SDS011;6244;51.460;7.090;2022-08-05T11:54:41;1142.18;;;999.90;;
12359;SDS011;6244;51.460;7.090;2022-08-05T11:59:39;1134.13;;;999.90;;
12359;SDS011;6244;51.460;7.090;2022-08-05T12:04:42;1135.13;;;999.90;;
12359;SDS011;6244;51.460;7.090;2022-08-05T12:09:40;1138.43;;;999.90;;
12359;SDS011;6244;51.460;7.090;2022-08-05T12:14:38;1138.03;;;999.90;;
12359;SDS011;6244;51.460;7.090;2022-08-05T12:19:41;1148.90;;;999.90;;
12359;SDS011;6244;51.460;7.090;2022-08-05T12:24:39;1139.50;;;994.63;;
12359;SDS011;6244;51.460;7.090;2022-08-05T12:29:37;1141.68;;;991.67;;
12359;SDS011;6244;51.460;7.090;2022-08-05T12:34:35;1141.50;;;992.03;;
12359;SDS011;6244;51.460;7.090;2022-08-05T12:39:33;1136.03;;;993.30;;
12359;SDS011;6244;51.460;7.090;2022-08-05T12:44:30;1139.13;;;995.75;;
12359;SDS011;6244;51.460;7.090;2022-08-05T12:49:26;1135.70;;;993.93;;
12359;SDS011;6244;51.460;7.090;2022-08-05T12:54:35;1137.07;;;982.17;;
12359;SDS011;6244;51.460;7.090;2022-08-05T12:59:33;1134.68;;;979.63;;
12359;SDS011;6244;51.460;7.090;2022-08-05T13:04:39;1133.05;;;966.85;;
12359;SDS011;6244;51.460;7.090;2022-08-05T13:09:39;1140.15;;;974.42;;
12359;SDS011;6244;51.460;7.090;2022-08-05T13:14:38;1140.40;;;963.83;;
12359;SDS011;6244;51.460;7.090;2022-08-05T13:19:36;1140.85;;;959.90;;
12359;SDS011;6244;51.460;7.090;2022-08-05T13:24:32;1137.03;;;968.30;;
12359;SDS011;6244;51.460;7.090;2022-08-05T13:29:31;1138.35;;;968.38;;
12359;SDS011;6244;51.460;7.090;2022-08-05T13:34:27;1131.10;;;965.95;;
12359;SDS011;6244;51.460;7.090;2022-08-05T13:39:24;1132.97;;;975.45;;
12359;SDS011;6244;51.460;7.090;2022-08-05T13:44:21;1136.15;;;981.95;;
12359;SDS011;6244;51.460;7.090;2022-08-05T13:49:19;1135.13;;;967.60;;
12359;SDS011;6244;51.460;7.090;2022-08-05T13:54:16;1139.88;;;981.70;;
12359;SDS011;6244;51.460;7.090;2022-08-05T13:59:14;1140.63;;;976.53;;
12359;SDS011;6244;51.460;7.090;2022-08-05T14:04:11;1144.77;;;971.10;;
12359;SDS011;6244;51.460;7.090;2022-08-05T14:09:26;1145.60;;;942.50;;
12359;SDS011;6244;51.460;7.090;2022-08-05T14:14:23;1143.27;;;941.37;;
12359;SDS011;6244;51.460;7.090;2022-08-05T14:19:20;1138.35;;;937.85;;
12359;SDS011;6244;51.460;7.090;2022-08-05T14:24:17;1132.35;;;942.92;;
12359;SDS011;6244;51.460;7.090;2022-08-05T14:29:15;1143.43;;;935.23;;
12359;SDS011;6244;51.460;7.090;2022-08-05T14:34:12;1134.55;;;946.35;;
12359;SDS011;6244;51.460;7.090;2022-08-05T14:39:11;1134.78;;;941.70;;
12359;SDS011;6244;51.460;7.090;2022-08-05T14:44:08;1136.28;;;957.28;;
12359;SDS011;6244;51.460;7.090;2022-08-05T14:49:08;1138.93;;;971.17;;
12359;SDS011;6244;51.460;7.090;2022-08-05T14:54:05;1136.22;;;965.03;;
12359;SDS011;6244;51.460;7.090;2022-08-05T14:59:02;1137.90;;;967.90;;
12359;SDS011;6244;51.460;7.090;2022-08-05T15:03:59;1132.10;;;958.75;;
12359;SDS011;6244;51.460;7.090;2022-08-05T15:08:56;1132.03;;;959.80;;
12359;SDS011;6244;51.460;7.090;2022-08-05T15:13:53;1134.85;;;958.25;;
12359;SDS011;6244;51.460;7.090;2022-08-05T15:18:49;1132.17;;;955.10;;
12359;SDS011;6244;51.460;7.090;2022-08-05T15:23:46;1131.38;;;956.10;;
12359;SDS011;6244;51.460;7.090;2022-08-05T15:28:44;1134.18;;;949.35;;
12359;SDS011;6244;51.460;7.090;2022-08-05T15:33:41;1138.43;;;962.50;;
12359;SDS011;6244;51.460;7.090;2022-08-05T15:38:38;1135.38;;;945.53;;
12359;SDS011;6244;51.460;7.090;2022-08-05T15:43:37;1137.90;;;906.30;;
12359;SDS011;6244;51.460;7.090;2022-08-05T15:48:35;1140.70;;;908.53;;
12359;SDS011;6244;51.460;7.090;2022-08-05T15:53:31;1144.13;;;937.55;;
12359;SDS011;6244;51.460;7.090;2022-08-05T15:58:28;1142.15;;;909.92;;
12359;SDS011;6244;51.460;7.090;2022-08-05T16:03:24;1139.90;;;909.15;;
12359;SDS011;6244;51.460;7.090;2022-08-05T16:08:23;1140.88;;;912.13;;
12359;SDS011;6244;51.460;7.090;2022-08-05T16:13:19;1137.20;;;899.53;;
12359;SDS011;6244;51.460;7.090;2022-08-05T16:18:16;1139.55;;;913.17;;
12359;SDS011;6244;51.460;7.090;2022-08-05T16:23:13;1136.22;;;916.58;;
12359;SDS011;6244;51.460;7.090;2022-08-05T16:28:11;1140.05;;;923.17;;
12359;SDS011;6244;51.460;7.090;2022-08-05T16:33:08;1135.63;;;914.73;;
12359;SDS011;6244;51.460;7.090;2022-08-05T16:38:05;1137.05;;;915.83;;
12359;SDS011;6244;51.460;7.090;2022-08-05T16:43:01;1135.83;;;914.13;;
12359;SDS011;6244;51.460;7.090;2022-08-05T16:47:59;1141.35;;;914.20;;
12359;SDS011;6244;51.460;7.090;2022-08-05T16:52:56;1139.10;;;909.25;;
12359;SDS011;6244;51.460;7.090;2022-08-05T16:57:52;1140.07;;;899.30;;
12359;SDS011;6244;51.460;7.090;2022-08-05T17:02:49;1148.32;;;893.75;;
12359;SDS011;6244;51.460;7.090;2022-08-05T17:07:47;1143.82;;;888.58;;
12359;SDS011;6244;51.460;7.090;2022-08-05T17:12:43;1139.03;;;881.63;;
12359;SDS011;6244;51.460;7.090;2022-08-05T17:17:40;1137.63;;;886.35;;
12359;SDS011;6244;51.460;7.090;2022-08-05T17:22:37;1136.90;;;900.47;;
12359;SDS011;6244;51.460;7.090;2022-08-05T17:27:35;1135.68;;;898.03;;
12359;SDS011;6244;51.460;7.090;2022-08-05T17:32:32;1132.15;;;897.25;;
12359;SDS011;6244;51.460;7.090;2022-08-05T17:37:28;1132.80;;;897.27;;
12359;SDS011;6244;51.460;7.090;2022-08-05T17:42:25;1135.75;;;893.47;;
12359;SDS011;6244;51.460;7.090;2022-08-05T17:47:24;1139.15;;;895.03;;
12359;SDS011;6244;51.460;7.090;2022-08-05T17:52:21;1141.60;;;895.25;;
12359;SDS011;6244;51.460;7.090;2022-08-05T17:57:18;1142.07;;;898.93;;
12359;SDS011;6244;51.460;7.090;2022-08-05T18:02:14;1138.40;;;888.47;;
12359;SDS011;6244;51.460;7.090;2022-08-05T18:07:12;1141.27;;;893.30;;
12359;SDS011;6244;51.460;7.090;2022-08-05T18:12:09;1140.07;;;889.40;;
12359;SDS011;6244;51.460;7.090;2022-08-05T18:17:05;1139.68;;;892.25;;
12359;SDS011;6244;51.460;7.090;2022-08-05T18:22:02;1137.78;;;891.22;;
12359;SDS011;6244;51.460;7.090;2022-08-05T18:27:00;1140.17;;;896.07;;
12359;SDS011;6244;51.460;7.090;2022-08-05T18:31:57;1141.80;;;897.58;;
12359;SDS011;6244;51.460;7.090;2022-08-05T18:36:53;1136.18;;;879.08;;
12359;SDS011;6244;51.460;7.090;2022-08-05T18:41:50;1139.78;;;888.20;;
12359;SDS011;6244;51.460;7.090;2022-08-05T18:46:49;1140.30;;;889.90;;
12359;SDS011;6244;51.460;7.090;2022-08-05T18:51:45;1139.57;;;891.20;;
12359;SDS011;6244;51.460;7.090;2022-08-05T18:56:59;1135.03;;;877.67;;
12359;SDS011;6244;51.460;7.090;2022-08-05T19:01:57;1136.35;;;879.67;;
12359;SDS011;6244;51.460;7.090;2022-08-05T19:06:54;1135.78;;;886.97;;
12359;SDS011;6244;51.460;7.090;2022-08-05T19:11:50;1137.13;;;882.67;;
12359;SDS011;6244;51.460;7.090;2022-08-05T19:16:47;1142.72;;;889.80;;
12359;SDS011;6244;51.460;7.090;2022-08-05T19:21:45;1141.53;;;889.60;;
12359;SDS011;6244;51.460;7.090;2022-08-05T19:26:42;1139.53;;;881.83;;
12359;SDS011;6244;51.460;7.090;2022-08-05T19:31:38;1141.95;;;883.80;;
12359;SDS011;6244;51.460;7.090;2022-08-05T19:36:35;1137.10;;;872.40;;
12359;SDS011;6244;51.460;7.090;2022-08-05T19:41:33;1141.35;;;872.38;;
12359;SDS011;6244;51.460;7.090;2022-08-05T19:46:30;1142.43;;;878.10;;
12359;SDS011;6244;51.460;7.090;2022-08-05T19:51:27;1144.97;;;882.37;;
12359;SDS011;6244;51.460;7.090;2022-08-05T19:56:24;1139.80;;;878.13;;
12359;SDS011;6244;51.460;7.090;2022-08-05T20:01:22;1143.80;;;883.13;;
12359;SDS011;6244;51.460;7.090;2022-08-05T20:06:18;1141.88;;;883.65;;
12359;SDS011;6244;51.460;7.090;2022-08-05T20:11:15;1145.23;;;888.07;;
12359;SDS011;6244;51.460;7.090;2022-08-05T20:16:12;1145.97;;;869.72;;
12359;SDS011;6244;51.460;7.090;2022-08-05T20:21:10;1142.85;;;886.67;;
12359;SDS011;6244;51.460;7.090;2022-08-05T20:26:06;1142.38;;;884.17;;
12359;SDS011;6244;51.460;7.090;2022-08-05T20:31:03;1140.97;;;881.73;;
12359;SDS011;6244;51.460;7.090;2022-08-05T20:36:00;1141.30;;;868.40;;
12359;SDS011;6244;51.460;7.090;2022-08-05T20:40:59;1142.57;;;871.25;;
12359;SDS011;6244;51.460;7.090;2022-08-05T20:45:55;1141.80;;;881.47;;
12359;SDS011;6244;51.460;7.090;2022-08-05T20:50:52;1138.53;;;874.50;;
12359;SDS011;6244;51.460;7.090;2022-08-05T20:55:49;1141.70;;;873.00;;
12359;SDS011;6244;51.460;7.090;2022-08-05T21:00:47;1140.90;;;879.35;;
12359;SDS011;6244;51.460;7.090;2022-08-05T21:05:44;1141.37;;;878.83;;
12359;SDS011;6244;51.460;7.090;2022-08-05T21:10:41;1139.80;;;868.25;;
12359;SDS011;6244;51.460;7.090;2022-08-05T21:15:38;1140.77;;;871.97;;
12359;SDS011;6244;51.460;7.090;2022-08-05T21:20:36;1139.35;;;867.38;;
12359;SDS011;6244;51.460;7.090;2022-08-05T21:25:32;1141.03;;;869.33;;
12359;SDS011;6244;51.460;7.090;2022-08-05T21:30:29;1144.38;;;865.28;;
12359;SDS011;6244;51.460;7.090;2022-08-05T21:35:26;1143.53;;;860.77;;
12359;SDS011;6244;51.460;7.090;2022-08-05T21:40:25;1147.22;;;862.45;;
12359;SDS011;6244;51.460;7.090;2022-08-05T21:45:21;1148.45;;;869.80;;
12359;SDS011;6244;51.460;7.090;2022-08-05T21:50:18;1149.27;;;872.90;;
12359;SDS011;6244;51.460;7.090;2022-08-05T21:55:14;1150.78;;;879.13;;
12359;SDS011;6244;51.460;7.090;2022-08-05T22:00:14;1147.50;;;870.47;;
12359;SDS011;6244;51.460;7.090;2022-08-05T22:05:12;1146.85;;;866.03;;
12359;SDS011;6244;51.460;7.090;2022-08-05T22:10:09;1147.73;;;862.90;;
12359;SDS011;6244;51.460;7.090;2022-08-05T22:15:06;1146.45;;;868.55;;
12359;SDS011;6244;51.460;7.090;2022-08-05T22:20:07;1147.97;;;875.27;;
12359;SDS011;6244;51.460;7.090;2022-08-05T22:25:05;1146.00;;;864.05;;
12359;SDS011;6244;51.460;7.090;2022-08-05T22:30:20;1146.15;;;871.17;;
12359;SDS011;6244;51.460;7.090;2022-08-05T22:35:18;1147.90;;;868.90;;
12359;SDS011;6244;51.460;7.090;2022-08-05T22:40:14;1147.57;;;869.90;;
12359;SDS011;6244;51.460;7.090;2022-08-05T22:45:11;1146.18;;;872.10;;
12359;SDS011;6244;51.460;7.090;2022-08-05T22:50:08;1143.90;;;857.97;;
12359;SDS011;6244;51.460;7.090;2022-08-05T22:55:06;1145.03;;;867.28;;
12359;SDS011;6244;51.460;7.090;2022-08-05T23:00:04;1144.70;;;871.28;;
12359;SDS011;6244;51.460;7.090;2022-08-05T23:05:01;1144.32;;;866.15;;
12359;SDS011;6244;51.460;7.090;2022-08-05T23:09:58;1143.72;;;861.47;;
12359;SDS011;6244;51.460;7.090;2022-08-05T23:14:56;1141.13;;;858.72;;
12359;SDS011;6244;51.460;7.090;2022-08-05T23:19:53;1141.13;;;853.63;;
12359;SDS011;6244;51.460;7.090;2022-08-05T23:24:51;1143.45;;;852.75;;
12359;SDS011;6244;51.460;7.090;2022-08-05T23:29:48;1139.37;;;855.80;;
12359;SDS011;6244;51.460;7.090;2022-08-05T23:34:45;1142.72;;;863.55;;
12359;SDS011;6244;51.460;7.090;2022-08-05T23:39:42;1139.72;;;855.40;;
12359;SDS011;6244;51.460;7.090;2022-08-05T23:44:38;1140.97;;;854.70;;
12359;SDS011;6244;51.460;7.090;2022-08-05T23:49:35;1141.60;;;846.33;;
12359;SDS011;6244;51.460;7.090;2022-08-05T23:54:33;1143.53;;;848.20;;
12359;SDS011;6244;51.460;7.090;2022-08-05T23:59:30;1142.88;;;846.30;;
